createdAt,value
2018-04-02T00:01:49.763Z,91.47
2018-04-02T00:04:23.301Z,91.54
2018-04-02T00:06:57.053Z,91.34
2018-04-02T00:09:30.931Z,91.35
2018-04-02T00:12:04.556Z,91.35
2018-04-02T00:14:38.100Z,91.51
2018-04-02T00:17:11.654Z,91.41
2018-04-02T00:19:45.206Z,91.39
2018-04-02T00:22:18.978Z,91.41
2018-04-02T00:24:53.250Z,91.51
2018-04-02T00:27:26.898Z,91.53
2018-04-02T00:30:00.435Z,91.43
2018-04-02T00:32:34.021Z,91.47
2018-04-02T00:35:07.637Z,91.52
2018-04-02T00:37:41.330Z,91.72
2018-04-02T00:40:14.995Z,91.56
2018-04-02T00:42:48.669Z,91.69
2018-04-02T00:45:22.402Z,91.71
2018-04-02T00:47:56.045Z,91.69
2018-04-02T00:50:29.596Z,91.63
2018-04-02T00:53:03.354Z,91.38
2018-04-02T00:55:36.881Z,91.22
2018-04-02T00:58:10.544Z,91.23
2018-04-02T01:00:44.097Z,91.45
2018-04-02T01:03:17.750Z,91.53
2018-04-02T01:05:51.317Z,91.38
2018-04-02T01:08:25.005Z,91.18
2018-04-02T01:10:58.682Z,91.00
2018-04-02T01:13:32.249Z,91.18
2018-04-02T01:16:05.782Z,91.31
2018-04-02T01:18:39.422Z,91.29
2018-04-02T01:21:13.093Z,91.23
2018-04-02T01:23:46.665Z,91.41
2018-04-02T01:26:20.347Z,91.23
2018-04-02T01:28:53.989Z,90.82
2018-04-02T01:31:27.546Z,90.87
2018-04-02T01:34:01.211Z,90.59
2018-04-02T01:36:34.940Z,90.62
2018-04-02T01:39:08.620Z,90.95
2018-04-02T01:41:42.176Z,90.98
2018-04-02T01:44:15.739Z,91.19
2018-04-02T01:46:49.240Z,91.11
2018-04-02T01:49:22.925Z,91.15
2018-04-02T01:51:56.631Z,91.16
2018-04-02T01:54:30.333Z,91.20
2018-04-02T01:57:04.161Z,91.58
2018-04-02T01:59:37.809Z,91.67
2018-04-02T02:02:11.430Z,91.51
2018-04-02T02:04:44.990Z,91.57
2018-04-02T02:07:18.629Z,91.58
2018-04-02T02:09:52.366Z,91.73
2018-04-02T02:12:26.005Z,91.71
2018-04-02T02:14:59.654Z,91.65
2018-04-02T02:17:33.237Z,91.72
2018-04-02T02:20:06.910Z,91.67
2018-04-02T02:22:40.561Z,91.73
2018-04-02T02:25:14.183Z,91.88
2018-04-02T02:27:47.809Z,91.64
2018-04-02T02:30:21.475Z,91.59
2018-04-02T02:32:55.169Z,91.61
2018-04-02T02:35:28.830Z,91.55
2018-04-02T02:38:02.663Z,91.62
2018-04-02T02:40:36.390Z,91.61
2018-04-02T02:43:10.122Z,91.50
2018-04-02T02:45:43.768Z,91.42
2018-04-02T02:48:17.339Z,91.46
2018-04-02T02:50:50.975Z,91.31
2018-04-02T02:53:24.497Z,91.29
2018-04-02T02:55:58.064Z,91.12
2018-04-02T02:58:31.642Z,91.16
2018-04-02T03:01:05.298Z,91.17
2018-04-02T03:03:38.902Z,91.07
2018-04-02T03:06:12.943Z,91.18
2018-04-02T03:11:26.451Z,91.04
2018-04-02T03:14:00.101Z,91.08
2018-04-02T03:16:33.773Z,91.12
2018-04-02T03:19:07.332Z,91.14
2018-04-02T03:21:40.891Z,91.36
2018-04-02T03:24:14.535Z,91.24
2018-04-02T03:26:48.077Z,91.27
2018-04-02T03:29:21.630Z,91.36
2018-04-02T03:31:55.394Z,91.41
2018-04-02T03:34:29.103Z,91.36
2018-04-02T03:37:02.625Z,91.39
2018-04-02T03:39:36.278Z,91.35
2018-04-02T03:42:09.814Z,91.61
2018-04-02T03:44:43.423Z,91.68
2018-04-02T03:47:17.123Z,91.77
2018-04-02T03:49:50.788Z,91.50
2018-04-02T03:52:24.500Z,91.43
2018-04-02T03:54:58.194Z,91.53
2018-04-02T03:57:31.841Z,91.50
2018-04-02T04:00:05.647Z,91.46
2018-04-02T04:02:39.286Z,91.23
2018-04-02T04:05:12.937Z,91.03
2018-04-02T04:07:46.522Z,91.03
2018-04-02T04:10:20.086Z,90.94
2018-04-02T04:12:53.762Z,90.79
2018-04-02T04:15:27.445Z,90.59
2018-04-02T04:18:01.038Z,90.44
2018-04-02T04:20:34.763Z,90.38
2018-04-02T04:23:08.405Z,90.30
2018-04-02T04:25:41.974Z,90.13
2018-04-02T04:28:15.682Z,89.81
2018-04-02T04:30:49.282Z,89.87
2018-04-02T04:33:22.922Z,89.89
2018-04-02T04:35:56.550Z,89.91
2018-04-02T04:38:30.223Z,89.86
2018-04-02T04:41:03.778Z,89.75
2018-04-02T04:43:37.439Z,89.73
2018-04-02T04:46:11.047Z,89.67
2018-04-02T04:48:44.650Z,89.58
2018-04-02T04:51:18.336Z,89.55
2018-04-02T04:53:52.006Z,89.42
2018-04-02T04:56:25.719Z,89.37
2018-04-02T04:58:59.281Z,89.39
2018-04-02T05:01:32.914Z,89.51
2018-04-02T05:04:06.729Z,89.68
2018-04-02T05:06:40.412Z,89.58
2018-04-02T05:09:14.100Z,89.53
2018-04-02T05:11:47.867Z,89.39
2018-04-02T05:14:21.679Z,89.32
2018-04-02T05:16:55.300Z,89.26
2018-04-02T05:19:29.054Z,89.32
2018-04-02T05:22:02.741Z,89.44
2018-04-02T05:24:36.370Z,89.27
2018-04-02T05:27:23.781Z,89.37
2018-04-02T05:29:57.430Z,89.11
2018-04-02T05:32:31.030Z,88.45
2018-04-02T05:35:04.615Z,88.07
2018-04-02T05:37:38.338Z,87.84
2018-04-02T05:40:11.925Z,87.51
2018-04-02T05:42:45.567Z,87.54
2018-04-02T05:45:19.185Z,87.57
2018-04-02T05:47:52.661Z,87.44
2018-04-02T05:50:26.273Z,86.76
2018-04-02T05:52:59.927Z,86.98
2018-04-02T05:55:33.474Z,86.34
2018-04-02T05:58:07.115Z,86.84
2018-04-02T06:00:40.742Z,86.80
2018-04-02T06:03:14.380Z,86.16
2018-04-02T06:05:48.058Z,85.85
2018-04-02T06:08:21.676Z,85.79
2018-04-02T06:10:55.230Z,86.16
2018-04-02T06:13:28.755Z,86.39
2018-04-02T06:16:02.375Z,85.93
2018-04-02T06:18:35.942Z,85.38
2018-04-02T06:21:09.737Z,85.55
2018-04-02T06:23:43.251Z,85.44
2018-04-02T06:26:16.835Z,85.08
2018-04-02T06:28:50.503Z,84.62
2018-04-02T06:31:24.115Z,84.47
2018-04-02T06:33:57.807Z,83.84
2018-04-02T06:36:31.502Z,83.40
2018-04-02T06:39:05.090Z,83.02
2018-04-02T06:41:38.858Z,82.36
2018-04-02T06:44:12.520Z,81.98
2018-04-02T06:46:46.241Z,80.50
2018-04-02T06:49:19.901Z,81.44
2018-04-02T06:51:53.488Z,80.53
2018-04-02T06:54:27.028Z,81.28
2018-04-02T06:57:00.643Z,82.13
2018-04-02T06:59:34.402Z,81.50
2018-04-02T07:02:07.946Z,80.83
2018-04-02T07:04:41.641Z,80.72
2018-04-02T07:07:15.180Z,81.26
2018-04-02T07:09:48.935Z,81.67
2018-04-02T07:12:22.670Z,81.31
2018-04-02T07:14:56.278Z,81.17
2018-04-02T07:17:30.004Z,80.77
2018-04-02T07:20:03.596Z,81.61
2018-04-02T07:22:37.348Z,80.57
2018-04-02T07:25:11.589Z,80.61
2018-04-02T07:27:45.434Z,79.64
2018-04-02T07:30:19.116Z,79.58
2018-04-02T07:32:52.792Z,78.95
2018-04-02T07:35:26.375Z,78.17
2018-04-02T07:38:00.095Z,77.45
2018-04-02T07:40:33.860Z,76.91
2018-04-02T07:43:07.436Z,76.73
2018-04-02T07:45:41.004Z,75.66
2018-04-02T07:48:14.818Z,74.86
2018-04-02T07:50:48.481Z,74.81
2018-04-02T07:53:22.001Z,74.65
2018-04-02T07:55:55.546Z,74.75
2018-04-02T07:58:29.110Z,75.42
2018-04-02T08:01:02.667Z,74.92
2018-04-02T08:03:36.308Z,74.66
2018-04-02T08:06:09.903Z,75.73
2018-04-02T08:08:43.690Z,76.12
2018-04-02T08:11:17.391Z,75.62
2018-04-02T08:13:51.062Z,74.98
2018-04-02T08:16:24.555Z,73.40
2018-04-02T08:18:58.134Z,72.95
2018-04-02T08:21:31.963Z,72.00
2018-04-02T08:24:05.656Z,73.05
2018-04-02T08:26:39.169Z,71.39
2018-04-02T08:29:12.765Z,72.20
2018-04-02T08:31:46.440Z,72.02
2018-04-02T08:34:19.962Z,71.44
2018-04-02T08:36:53.656Z,72.87
2018-04-02T08:39:27.194Z,71.98
2018-04-02T08:42:00.859Z,70.45
2018-04-02T08:44:34.482Z,67.81
2018-04-02T08:47:08.026Z,67.62
2018-04-02T08:49:41.563Z,68.08
2018-04-02T08:52:15.086Z,67.28
2018-04-02T08:54:48.738Z,66.85
2018-04-02T08:57:22.274Z,66.48
2018-04-02T08:59:55.886Z,66.36
2018-04-02T09:02:29.457Z,66.49
2018-04-02T09:05:03.176Z,66.98
2018-04-02T09:07:36.862Z,65.83
2018-04-02T09:10:10.481Z,65.66
2018-04-02T09:12:44.037Z,66.29
2018-04-02T09:15:17.589Z,65.73
2018-04-02T09:17:51.418Z,65.00
2018-04-02T09:20:25.122Z,63.38
2018-04-02T09:22:58.875Z,63.92
2018-04-02T09:25:32.541Z,64.10
2018-04-02T09:28:06.234Z,64.80
2018-04-02T09:30:39.782Z,64.04
2018-04-02T09:33:13.391Z,64.00
2018-04-02T09:35:46.950Z,64.59
2018-04-02T09:38:20.647Z,63.84
2018-04-02T09:40:54.290Z,63.27
2018-04-02T09:43:28.017Z,61.16
2018-04-02T09:46:01.741Z,61.02
2018-04-02T09:48:35.299Z,61.15
2018-04-02T09:51:08.890Z,59.15
2018-04-02T09:53:42.553Z,59.30
2018-04-02T09:56:16.324Z,59.40
2018-04-02T09:58:49.917Z,57.80
2018-04-02T10:01:29.595Z,58.00
2018-04-02T10:04:03.270Z,58.66
2018-04-02T10:06:36.867Z,56.47
2018-04-02T10:09:10.465Z,55.27
2018-04-02T10:11:44.166Z,55.12
2018-04-02T10:14:17.751Z,54.11
2018-04-02T10:19:31.249Z,51.79
2018-04-02T10:22:04.885Z,50.90
2018-04-02T10:24:38.563Z,50.00
2018-04-02T10:27:12.313Z,50.63
2018-04-02T10:29:45.978Z,50.15
2018-04-02T10:32:19.479Z,50.04
2018-04-02T10:34:53.085Z,49.60
2018-04-02T10:37:26.652Z,46.04
2018-04-02T10:40:00.281Z,46.24
2018-04-02T10:42:33.833Z,47.70
2018-04-02T10:45:07.471Z,46.90
2018-04-02T10:47:41.048Z,47.12
2018-04-02T10:50:14.582Z,47.34
2018-04-02T10:52:48.165Z,47.96
2018-04-02T10:55:21.836Z,48.46
2018-04-02T10:57:55.490Z,47.09
2018-04-02T11:00:29.062Z,46.78
2018-04-02T11:03:02.723Z,47.38
2018-04-02T11:05:36.494Z,45.66
2018-04-02T11:08:10.050Z,45.42
2018-04-02T11:10:43.610Z,46.35
2018-04-02T11:13:17.529Z,46.89
2018-04-02T11:15:51.087Z,47.13
2018-04-02T11:18:24.864Z,46.45
2018-04-02T11:20:58.459Z,46.24
2018-04-02T11:23:32.165Z,47.76
2018-04-02T11:26:05.798Z,46.07
2018-04-02T11:28:39.364Z,46.84
2018-04-02T11:31:12.985Z,43.44
2018-04-02T11:33:46.536Z,43.91
2018-04-02T11:36:20.080Z,43.41
2018-04-02T11:38:53.647Z,43.54
2018-04-02T11:41:27.394Z,43.72
2018-04-02T11:44:00.971Z,44.17
2018-04-02T11:46:34.507Z,44.03
2018-04-02T11:49:08.466Z,46.12
2018-04-02T11:51:42.050Z,45.31
2018-04-02T11:54:15.611Z,45.05
2018-04-02T11:56:49.206Z,44.73
2018-04-02T11:59:22.793Z,44.78
2018-04-02T12:01:56.575Z,45.55
2018-04-02T12:04:30.375Z,45.47
2018-04-02T12:07:03.909Z,44.28
2018-04-02T12:09:37.633Z,44.42
2018-04-02T12:12:11.235Z,44.19
2018-04-02T12:14:45.062Z,44.52
2018-04-02T12:17:18.678Z,42.62
2018-04-02T12:19:52.424Z,43.91
2018-04-02T12:22:26.142Z,41.91
2018-04-02T12:24:59.694Z,42.61
2018-04-02T12:27:33.284Z,43.64
2018-04-02T12:30:06.930Z,43.31
2018-04-02T12:32:40.542Z,43.38
2018-04-02T12:35:14.264Z,44.36
2018-04-02T12:37:47.902Z,43.70
2018-04-02T12:40:21.814Z,45.66
2018-04-02T12:42:55.490Z,44.67
2018-04-02T12:45:29.292Z,45.97
2018-04-02T12:48:02.973Z,45.93
2018-04-02T12:50:36.757Z,45.42
2018-04-02T12:53:10.441Z,44.68
2018-04-02T12:55:44.166Z,45.65
2018-04-02T12:58:17.809Z,46.33
2018-04-02T13:00:51.557Z,45.20
2018-04-02T13:03:26.021Z,44.75
2018-04-02T13:05:59.722Z,44.05
2018-04-02T13:08:33.295Z,43.79
2018-04-02T13:11:06.852Z,44.86
2018-04-02T13:13:40.370Z,45.57
2018-04-02T13:16:14.201Z,44.31
2018-04-02T13:18:47.880Z,44.48
2018-04-02T13:21:21.683Z,45.11
2018-04-02T13:23:55.250Z,44.99
2018-04-02T13:26:28.874Z,45.13
2018-04-02T13:29:02.381Z,45.38
2018-04-02T13:31:36.185Z,44.59
2018-04-02T13:34:09.952Z,45.64
2018-04-02T13:36:43.535Z,45.73
2018-04-02T13:39:17.277Z,46.08
2018-04-02T13:41:50.918Z,46.05
2018-04-02T13:44:24.477Z,45.64
2018-04-02T13:46:58.163Z,45.74
2018-04-02T13:49:32.049Z,45.81
2018-04-02T13:52:05.627Z,46.33
2018-04-02T13:54:39.357Z,46.55
2018-04-02T13:57:12.949Z,46.36
2018-04-02T13:59:46.629Z,46.77
2018-04-02T14:02:20.255Z,46.67
2018-04-02T14:04:54.082Z,46.07
2018-04-02T14:07:27.765Z,45.94
2018-04-02T14:10:01.581Z,45.59
2018-04-02T14:12:35.141Z,46.28
2018-04-02T14:15:08.732Z,47.33
2018-04-02T14:17:42.354Z,45.47
2018-04-02T14:20:16.023Z,45.08
2018-04-02T14:22:49.651Z,44.58
2018-04-02T14:25:23.399Z,44.67
2018-04-02T14:27:57.231Z,43.81
2018-04-02T14:30:30.890Z,44.14
2018-04-02T14:33:04.646Z,44.22
2018-04-02T14:35:38.378Z,43.84
2018-04-02T14:38:12.190Z,42.61
2018-04-02T14:40:45.690Z,42.95
2018-04-02T14:43:19.445Z,43.55
2018-04-02T14:45:53.079Z,44.80
2018-04-02T14:48:26.692Z,49.68
2018-04-02T14:51:00.448Z,46.40
2018-04-02T14:53:34.007Z,45.32
2018-04-02T14:56:07.771Z,45.09
2018-04-02T14:58:41.432Z,44.41
2018-04-02T15:01:15.050Z,44.17
2018-04-02T15:03:48.755Z,45.19
2018-04-02T15:06:22.420Z,44.85
2018-04-02T15:08:55.993Z,46.17
2018-04-02T15:11:29.675Z,45.48
2018-04-02T15:14:03.298Z,46.22
2018-04-02T15:16:37.090Z,46.31
2018-04-02T15:19:10.690Z,46.80
2018-04-02T15:21:44.220Z,47.81
2018-04-02T15:24:18.073Z,46.49
2018-04-02T15:26:51.734Z,46.99
2018-04-02T15:29:25.527Z,45.86
2018-04-02T15:31:59.313Z,45.35
2018-04-02T15:34:32.888Z,46.01
2018-04-02T15:37:06.742Z,45.81
2018-04-02T15:39:40.652Z,46.53
2018-04-02T15:42:14.397Z,46.46
2018-04-02T15:44:48.185Z,46.31
2018-04-02T15:47:21.757Z,46.00
2018-04-02T15:49:55.569Z,46.21
2018-04-02T15:52:29.277Z,46.26
2018-04-02T15:55:03.071Z,47.67
2018-04-02T15:57:36.704Z,48.23
2018-04-02T16:00:10.611Z,48.79
2018-04-02T16:02:44.245Z,49.19
2018-04-02T16:05:18.073Z,48.61
2018-04-02T16:07:51.899Z,48.58
2018-04-02T16:10:25.550Z,48.10
2018-04-02T16:12:59.274Z,48.15
2018-04-02T16:15:33.043Z,48.28
2018-04-02T16:18:06.822Z,48.90
2018-04-02T16:20:40.393Z,49.51
2018-04-02T16:23:14.053Z,49.89
2018-04-02T16:25:47.758Z,48.94
2018-04-02T16:28:21.414Z,49.35
2018-04-02T16:30:55.147Z,49.15
2018-04-02T16:33:28.711Z,49.52
2018-04-02T16:36:02.287Z,50.23
2018-04-02T16:38:35.971Z,49.69
2018-04-02T16:41:09.656Z,49.56
2018-04-02T16:43:43.205Z,49.98
2018-04-02T16:46:16.757Z,50.00
2018-04-02T16:48:50.270Z,49.98
2018-04-02T16:51:23.806Z,50.16
2018-04-02T16:53:57.616Z,50.21
2018-04-02T16:56:31.300Z,49.92
2018-04-02T16:59:05.018Z,49.93
2018-04-02T17:01:38.568Z,50.64
2018-04-02T17:04:12.322Z,50.20
2018-04-02T17:06:46.015Z,50.69
2018-04-02T17:09:19.576Z,50.55
2018-04-02T17:11:53.218Z,50.74
2018-04-02T17:14:26.841Z,50.73
2018-04-02T17:17:00.422Z,51.10
2018-04-02T17:19:34.166Z,50.68
2018-04-02T17:22:07.858Z,50.65
2018-04-02T17:24:41.658Z,50.72
2018-04-02T17:27:15.262Z,51.34
2018-04-02T17:29:48.802Z,51.28
2018-04-02T17:32:22.595Z,51.15
2018-04-02T17:34:56.116Z,51.46
2018-04-02T17:37:29.648Z,51.35
2018-04-02T17:40:03.398Z,51.26
2018-04-02T17:42:37.154Z,51.20
2018-04-02T17:45:11.035Z,51.29
2018-04-02T17:47:44.598Z,52.00
2018-04-02T17:50:18.374Z,51.57
2018-04-02T17:52:51.967Z,53.37
2018-04-02T17:55:25.576Z,52.84
2018-04-02T17:57:59.258Z,52.90
2018-04-02T18:00:32.832Z,52.60
2018-04-02T18:03:06.554Z,52.97
2018-04-02T18:05:40.108Z,52.25
2018-04-02T18:08:13.789Z,53.07
2018-04-02T18:10:47.467Z,53.13
2018-04-02T18:13:21.237Z,52.58
2018-04-02T18:15:55.019Z,52.55
2018-04-02T18:18:28.541Z,53.07
2018-04-02T18:21:02.208Z,53.83
2018-04-02T18:23:35.750Z,54.06
2018-04-02T18:26:09.530Z,54.00
2018-04-02T18:28:43.146Z,55.01
2018-04-02T18:31:16.798Z,54.75
2018-04-02T18:33:50.330Z,54.38
2018-04-02T18:36:23.886Z,54.56
2018-04-02T18:38:57.557Z,55.19
2018-04-02T18:41:31.355Z,56.56
2018-04-02T18:44:05.038Z,57.82
2018-04-02T18:46:38.759Z,59.34
2018-04-02T18:49:12.269Z,59.32
2018-04-02T18:51:45.800Z,61.06
2018-04-02T18:54:19.624Z,61.25
2018-04-02T18:56:53.236Z,62.01
2018-04-02T18:59:27.050Z,62.21
2018-04-02T19:02:00.579Z,63.69
2018-04-02T19:04:34.300Z,63.87
2018-04-02T19:07:08.020Z,63.93
2018-04-02T19:09:41.550Z,65.29
2018-04-02T19:12:15.175Z,65.92
2018-04-02T19:14:48.738Z,66.03
2018-04-02T19:17:22.313Z,66.13
2018-04-02T19:19:56.105Z,67.08
2018-04-02T19:22:29.774Z,67.24
2018-04-02T19:25:03.348Z,67.59
2018-04-02T19:27:36.868Z,67.53
2018-04-02T19:30:10.522Z,67.28
2018-04-02T19:32:44.423Z,67.68
2018-04-02T19:35:18.002Z,68.33
2018-04-02T19:37:51.791Z,68.46
2018-04-02T19:40:25.737Z,68.14
2018-04-02T19:42:59.249Z,69.30
2018-04-02T19:45:32.907Z,67.85
2018-04-02T19:48:06.504Z,68.46
2018-04-02T19:50:40.217Z,68.50
2018-04-02T19:53:13.938Z,67.85
2018-04-02T19:55:47.586Z,68.68
2018-04-02T19:58:21.234Z,67.94
2018-04-02T20:00:54.818Z,68.02
2018-04-02T20:03:28.649Z,68.54
2018-04-02T20:06:02.309Z,68.08
2018-04-02T20:08:35.810Z,67.98
2018-04-02T20:11:09.372Z,68.93
2018-04-02T20:13:42.958Z,68.44
2018-04-02T20:16:16.514Z,68.34
2018-04-02T20:18:50.066Z,67.98
2018-04-02T20:21:23.738Z,67.66
2018-04-02T20:23:57.331Z,67.37
2018-04-02T20:26:30.910Z,67.36
2018-04-02T20:29:04.619Z,67.00
2018-04-02T20:31:38.239Z,67.36
2018-04-02T20:34:11.976Z,67.61
2018-04-02T20:36:45.934Z,67.45
2018-04-02T20:39:19.612Z,68.64
2018-04-02T20:41:53.426Z,67.91
2018-04-02T20:44:27.110Z,68.63
2018-04-02T20:47:00.852Z,68.53
2018-04-02T20:49:34.414Z,70.29
2018-04-02T20:52:08.099Z,71.55
2018-04-02T20:54:41.831Z,72.84
2018-04-02T20:57:15.657Z,72.84
2018-04-02T20:59:49.319Z,71.98
2018-04-02T21:02:22.871Z,72.60
2018-04-02T21:04:56.478Z,72.99
2018-04-02T21:07:30.080Z,72.18
2018-04-02T21:10:03.665Z,72.48
2018-04-02T21:12:37.330Z,73.36
2018-04-02T21:15:11.277Z,72.75
2018-04-02T21:17:44.937Z,72.25
2018-04-02T21:20:18.469Z,72.06
2018-04-02T21:22:52.146Z,71.48
2018-04-02T21:25:25.975Z,71.21
2018-04-02T21:27:59.516Z,70.91
2018-04-02T21:30:33.162Z,72.56
2018-04-02T21:33:06.864Z,72.54
2018-04-02T21:35:40.429Z,73.31
2018-04-02T21:38:14.182Z,73.94
2018-04-02T21:40:47.856Z,73.64
2018-04-02T21:43:21.361Z,75.16
2018-04-02T21:45:54.962Z,74.54
2018-04-02T21:48:28.477Z,74.49
2018-04-02T21:51:02.242Z,75.06
2018-04-02T21:53:35.814Z,76.04
2018-04-02T21:56:09.716Z,76.32
2018-04-02T21:58:43.234Z,74.78
2018-04-02T22:01:16.885Z,74.62
2018-04-02T22:03:50.513Z,73.98
2018-04-02T22:06:36.053Z,75.25
2018-04-02T22:09:09.787Z,75.11
2018-04-02T22:11:43.286Z,74.78
2018-04-02T22:14:16.980Z,73.61
2018-04-02T22:16:50.619Z,75.17
2018-04-02T22:19:24.242Z,74.96
2018-04-02T22:21:57.994Z,74.81
2018-04-02T22:24:31.591Z,74.02
2018-04-02T22:27:05.183Z,74.29
2018-04-02T22:29:38.793Z,74.25
2018-04-02T22:32:12.340Z,73.61
2018-04-02T22:34:45.980Z,73.56
2018-04-02T22:37:19.499Z,73.21
2018-04-02T22:39:53.093Z,72.28
2018-04-02T22:42:26.568Z,72.16
2018-04-02T22:45:00.132Z,72.83
2018-04-02T22:47:33.808Z,71.56
2018-04-02T22:50:07.368Z,71.59
2018-04-02T22:52:41.052Z,72.67
2018-04-02T22:55:14.867Z,73.32
2018-04-02T22:57:48.378Z,71.78
2018-04-02T23:00:21.966Z,71.84
2018-04-02T23:02:55.594Z,70.71
2018-04-02T23:05:29.197Z,70.23
2018-04-02T23:08:02.839Z,70.93
2018-04-02T23:10:36.461Z,70.80
2018-04-02T23:13:10.069Z,72.09
2018-04-02T23:15:43.711Z,71.17
2018-04-02T23:18:17.454Z,71.06
2018-04-02T23:20:51.306Z,70.69
2018-04-02T23:23:24.765Z,70.39
2018-04-02T23:25:58.436Z,69.89
2018-04-02T23:28:32.004Z,71.01
2018-04-02T23:31:05.544Z,69.90
2018-04-02T23:33:39.066Z,71.65
2018-04-02T23:36:12.801Z,73.44
2018-04-02T23:38:46.430Z,75.16
2018-04-02T23:41:20.126Z,76.50
2018-04-02T23:43:53.723Z,74.21
2018-04-02T23:46:27.362Z,74.19
2018-04-02T23:49:00.887Z,74.29
2018-04-02T23:51:34.659Z,74.59
2018-04-02T23:54:08.477Z,75.36
2018-04-02T23:56:42.099Z,74.90
2018-04-02T23:59:15.760Z,75.00
